MOL Gateway — CQHN — position and weather

sailwx.info

Track history (hours):
 
Tides and Currents Weather Stations Pressure Air Temp Water Temp Dewpoint Dewpoint Depression Visibility Wind Speed Wind Dir Waves Ship Positions

MOL Gateway

Last reported at 2018-Jun-10 01:31 UTC. Time now 2018-Jun-22 08:51 UTC.
Position N 01°31' E 103°02'.
Warning: this ship's position is 12 days out of date.

Length 275 m; draft 11.2 m.

Type: Cargo ship. MMSI: 255805589.

Date/timePositionNaut miles runAvg speedWind from/ knotsBaromVisibWave heightAir tempDewpointWater temp
2018-Jun-10 01:31N 01°31' E 103°02'217.5
2018-Jun-10 01:23N 01°29' E 103°04'717.1
2018-Jun-10 00:59N 01°25' E 103°10'817.2
2018-Jun-10 00:30N 01°20' E 103°16'917.2
2018-Jun-10 00:00N 01°15' E 103°23'918.1
2018-Jun-09 23:30N 01°12' E 103°32'816.2
2018-Jun-09 23:00N 01°12' E 103°40'511.1
2018-Jun-09 22:31N 01°16' E 103°44'3 5.1
2018-Jun-09 21:59N 01°17' E 103°47'0 0.0
2018-Jun-09 21:30N 01°17' E 103°47'0 0.0
2018-Jun-09 21:00N 01°17' E 103°47'0 0.0
2018-Jun-09 20:26N 01°17' E 103°47'0 0.0
2018-Jun-09 20:00N 01°17' E 103°47'0 0.0
2018-Jun-09 19:28N 01°17' E 103°47'0 0.0
2018-Jun-09 18:58N 01°17' E 103°47'0 0.0
2018-Jun-09 18:25N 01°17' E 103°47'0 0.0
2018-Jun-09 17:57N 01°17' E 103°47'0 0.0
2018-Jun-09 17:30N 01°17' E 103°47'0 0.0
2018-Jun-09 17:00N 01°17' E 103°47'0 0.0
2018-Jun-09 16:28N 01°17' E 103°47'0 0.0
2018-Jun-09 16:00N 01°17' E 103°47'0 0.0
2018-Jun-09 14:57N 01°17' E 103°47'0 0.0
2018-Jun-09 14:30N 01°17' E 103°47'0 0.0
2018-Jun-09 13:56N 01°17' E 103°47'0 0.0
2018-Jun-09 13:27N 01°17' E 103°47'0 0.0
2018-Jun-09 12:57N 01°17' E 103°47'0 0.0
2018-Jun-09 12:28N 01°17' E 103°47'0 0.0
2018-Jun-09 12:00N 01°17' E 103°47'0 0.0
2018-Jun-09 11:29N 01°17' E 103°47'0 0.0
2018-Jun-09 10:59N 01°17' E 103°47'0 0.0
2018-Jun-09 10:27N 01°17' E 103°47'0 0.0
2018-Jun-09 09:58N 01°17' E 103°47'0 0.0
2018-Jun-09 09:30N 01°17' E 103°47'0 0.0
2018-Jun-09 08:59N 01°17' E 103°47'0 0.0
2018-Jun-09 08:30N 01°17' E 103°47'0 0.0
2018-Jun-09 07:55N 01°17' E 103°47'0 0.0
2018-Jun-09 07:31N 01°17' E 103°47'0 0.0
2018-Jun-09 07:00N 01°17' E 103°47'0 0.0
2018-Jun-09 06:30N 01°17' E 103°47'0 0.0
2018-Jun-09 05:55N 01°17' E 103°47'0 0.0
2018-Jun-09 05:30N 01°17' E 103°47'0 0.0
2018-Jun-09 05:00N 01°17' E 103°47'0 0.0
2018-Jun-09 04:30N 01°17' E 103°47'0 0.0
2018-Jun-09 04:00N 01°17' E 103°47'0 0.0
2018-Jun-09 03:30N 01°17' E 103°47'1 2.9
2018-Jun-09 03:00N 01°15' E 103°47'1 1.2
2018-Jun-09 02:30N 01°15' E 103°47'1 2.3
2018-Jun-09 01:59N 01°14' E 103°48'2 4.3
2018-Jun-09 01:30N 01°13' E 103°49'4 8.6
2018-Jun-09 01:00N 01°14' E 103°54'4 8.7
2018-Jun-09 00:30N 01°15' E 103°58'510.3
2018-Jun-08 23:59N 01°16' E 104°03'511.2
2018-Jun-08 23:30N 01°16' E 104°08'611.5
2018-Jun-08 22:58N 01°17' E 104°14'612.5
2018-Jun-08 22:30N 01°19' E 104°20'814.0
2018-Jun-08 21:58N 01°24' E 104°26'1913.3
2018-Jun-08 20:33N 01°37' E 104°40'311.8
2018-Jun-08 20:20N 01°39' E 104°42'0 0.6
2018-Jun-08 19:42N 01°38' E 104°41'0 1.4
2018-Jun-08 19:25N 01°38' E 104°41'1 1.2
2018-Jun-08 18:49N 01°37' E 104°41'13 6.8
2018-Jun-08 16:58N 01°29' E 104°32'2512.3
2018-Jun-08 14:55N 01°54' E 104°31'  
2018-Jun-03 09:08N 01°25' E 104°28'821.5
2018-Jun-03 08:47N 01°19' E 104°23'620.5
2018-Jun-03 08:30N 01°16' E 104°18'1120.9
2018-Jun-03 07:59N 01°15' E 104°07'1019.6
2018-Jun-03 07:30N 01°14' E 103°57'612.0
2018-Jun-03 07:00N 01°14' E 103°52'2 3.2
2018-Jun-03 06:21N 01°16' E 103°50'0 0.0
2018-Jun-03 06:00N 01°16' E 103°50'0 0.0
2018-Jun-03 05:25N 01°16' E 103°50'0 0.0
2018-Jun-03 04:56N 01°16' E 103°50'0 0.0
2018-Jun-03 04:28N 01°16' E 103°50'0 0.0
2018-Jun-03 04:00N 01°16' E 103°50'0 0.0
2018-Jun-03 03:30N 01°16' E 103°50'0 0.0
2018-Jun-03 03:01N 01°16' E 103°50'0 0.0
2018-Jun-03 02:25N 01°16' E 103°50'0 0.0
2018-Jun-03 01:59N 01°16' E 103°50'0 0.0
2018-Jun-03 01:30N 01°16' E 103°50'0 0.0
2018-Jun-03 00:49N 01°16' E 103°50'0 0.0
2018-Jun-03 00:25N 01°16' E 103°50'0 0.0
2018-Jun-03 00:00N 01°16' E 103°50'0 0.0
2018-Jun-02 23:31N 01°16' E 103°50'0 0.9
2018-Jun-02 23:00N 01°16' E 103°51'2 3.8
2018-Jun-02 22:31N 01°15' E 103°52'2 4.9
2018-Jun-02 22:00N 01°12' E 103°52'510.1
2018-Jun-02 21:30N 01°09' E 103°48'713.9
2018-Jun-02 21:00N 01°05' E 103°43'612.6
2018-Jun-02 20:30N 01°04' E 103°37'714.6
2018-Jun-02 20:00N 01°08' E 103°30'917.6
2018-Jun-02 19:30N 01°12' E 103°23'917.8
2018-Jun-02 18:59N 01°18' E 103°16'1117.9
2018-Jun-02 18:23N 01°25' E 103°07'1318.1
2018-Jun-02 17:39N 01°32' E 102°56'  
Track history (hours):
 
Tides and Currents Weather Stations Pressure Air Temp Water Temp Dewpoint Dewpoint Depression Visibility Wind Speed Wind Dir Waves Ship Positions

MOL Gateway

Last reported at 2018-Jun-10 01:31 UTC. Time now 2018-Jun-22 08:51 UTC.
Position N 01°31' E 103°02'.
Warning: this ship's position is 12 days out of date.

Length 275 m; draft 11.2 m.

Type: Cargo ship. MMSI: 255805589.

Date/timePositionNaut miles runAvg speedWind from/ knotsBaromVisibWave heightAir tempDewpointWater temp
2018-Jun-10 01:31N 01°31' E 103°02'217.5
2018-Jun-10 01:23N 01°29' E 103°04'717.1
2018-Jun-10 00:59N 01°25' E 103°10'817.2
2018-Jun-10 00:30N 01°20' E 103°16'917.2
2018-Jun-10 00:00N 01°15' E 103°23'918.1
2018-Jun-09 23:30N 01°12' E 103°32'816.2
2018-Jun-09 23:00N 01°12' E 103°40'511.1
2018-Jun-09 22:31N 01°16' E 103°44'3 5.1
2018-Jun-09 21:59N 01°17' E 103°47'0 0.0
2018-Jun-09 21:30N 01°17' E 103°47'0 0.0
2018-Jun-09 21:00N 01°17' E 103°47'0 0.0
2018-Jun-09 20:26N 01°17' E 103°47'0 0.0
2018-Jun-09 20:00N 01°17' E 103°47'0 0.0
2018-Jun-09 19:28N 01°17' E 103°47'0 0.0
2018-Jun-09 18:58N 01°17' E 103°47'0 0.0
2018-Jun-09 18:25N 01°17' E 103°47'0 0.0
2018-Jun-09 17:57N 01°17' E 103°47'0 0.0
2018-Jun-09 17:30N 01°17' E 103°47'0 0.0
2018-Jun-09 17:00N 01°17' E 103°47'0 0.0
2018-Jun-09 16:28N 01°17' E 103°47'0 0.0
2018-Jun-09 16:00N 01°17' E 103°47'0 0.0
2018-Jun-09 14:57N 01°17' E 103°47'0 0.0
2018-Jun-09 14:30N 01°17' E 103°47'0 0.0
2018-Jun-09 13:56N 01°17' E 103°47'0 0.0
2018-Jun-09 13:27N 01°17' E 103°47'0 0.0
2018-Jun-09 12:57N 01°17' E 103°47'0 0.0
2018-Jun-09 12:28N 01°17' E 103°47'0 0.0
2018-Jun-09 12:00N 01°17' E 103°47'0 0.0
2018-Jun-09 11:29N 01°17' E 103°47'0 0.0
2018-Jun-09 10:59N 01°17' E 103°47'0 0.0
2018-Jun-09 10:27N 01°17' E 103°47'0 0.0
2018-Jun-09 09:58N 01°17' E 103°47'0 0.0
2018-Jun-09 09:30N 01°17' E 103°47'0 0.0
2018-Jun-09 08:59N 01°17' E 103°47'0 0.0
2018-Jun-09 08:30N 01°17' E 103°47'0 0.0
2018-Jun-09 07:55N 01°17' E 103°47'0 0.0
2018-Jun-09 07:31N 01°17' E 103°47'0 0.0
2018-Jun-09 07:00N 01°17' E 103°47'0 0.0
2018-Jun-09 06:30N 01°17' E 103°47'0 0.0
2018-Jun-09 05:55N 01°17' E 103°47'0 0.0
2018-Jun-09 05:30N 01°17' E 103°47'0 0.0
2018-Jun-09 05:00N 01°17' E 103°47'0 0.0
2018-Jun-09 04:30N 01°17' E 103°47'0 0.0
2018-Jun-09 04:00N 01°17' E 103°47'0 0.0
2018-Jun-09 03:30N 01°17' E 103°47'1 2.9
2018-Jun-09 03:00N 01°15' E 103°47'1 1.2
2018-Jun-09 02:30N 01°15' E 103°47'1 2.3
2018-Jun-09 01:59N 01°14' E 103°48'2 4.3
2018-Jun-09 01:30N 01°13' E 103°49'4 8.6
2018-Jun-09 01:00N 01°14' E 103°54'4 8.7
2018-Jun-09 00:30N 01°15' E 103°58'510.3
2018-Jun-08 23:59N 01°16' E 104°03'511.2
2018-Jun-08 23:30N 01°16' E 104°08'611.5
2018-Jun-08 22:58N 01°17' E 104°14'612.5
2018-Jun-08 22:30N 01°19' E 104°20'814.0
2018-Jun-08 21:58N 01°24' E 104°26'1913.3
2018-Jun-08 20:33N 01°37' E 104°40'311.8
2018-Jun-08 20:20N 01°39' E 104°42'0 0.6
2018-Jun-08 19:42N 01°38' E 104°41'0 1.4
2018-Jun-08 19:25N 01°38' E 104°41'1 1.2
2018-Jun-08 18:49N 01°37' E 104°41'13 6.8
2018-Jun-08 16:58N 01°29' E 104°32'2512.3
2018-Jun-08 14:55N 01°54' E 104°31'  
2018-Jun-03 09:08N 01°25' E 104°28'821.5
2018-Jun-03 08:47N 01°19' E 104°23'620.5
2018-Jun-03 08:30N 01°16' E 104°18'1120.9
2018-Jun-03 07:59N 01°15' E 104°07'1019.6
2018-Jun-03 07:30N 01°14' E 103°57'612.0
2018-Jun-03 07:00N 01°14' E 103°52'2 3.2
2018-Jun-03 06:21N 01°16' E 103°50'0 0.0
2018-Jun-03 06:00N 01°16' E 103°50'0 0.0
2018-Jun-03 05:25N 01°16' E 103°50'0 0.0
2018-Jun-03 04:56N 01°16' E 103°50'0 0.0
2018-Jun-03 04:28N 01°16' E 103°50'0 0.0
2018-Jun-03 04:00N 01°16' E 103°50'0 0.0
2018-Jun-03 03:30N 01°16' E 103°50'0 0.0
2018-Jun-03 03:01N 01°16' E 103°50'0 0.0
2018-Jun-03 02:25N 01°16' E 103°50'0 0.0
2018-Jun-03 01:59N 01°16' E 103°50'0 0.0
2018-Jun-03 01:30N 01°16' E 103°50'0 0.0
2018-Jun-03 00:49N 01°16' E 103°50'0 0.0
2018-Jun-03 00:25N 01°16' E 103°50'0 0.0
2018-Jun-03 00:00N 01°16' E 103°50'0 0.0
2018-Jun-02 23:31N 01°16' E 103°50'0 0.9
2018-Jun-02 23:00N 01°16' E 103°51'2 3.8
2018-Jun-02 22:31N 01°15' E 103°52'2 4.9
2018-Jun-02 22:00N 01°12' E 103°52'510.1
2018-Jun-02 21:30N 01°09' E 103°48'713.9
2018-Jun-02 21:00N 01°05' E 103°43'612.6
2018-Jun-02 20:30N 01°04' E 103°37'714.6
2018-Jun-02 20:00N 01°08' E 103°30'917.6
2018-Jun-02 19:30N 01°12' E 103°23'917.8
2018-Jun-02 18:59N 01°18' E 103°16'1117.9
2018-Jun-02 18:23N 01°25' E 103°07'1318.1
2018-Jun-02 17:39N 01°32' E 102°56'  

Dump ship's entire track history